Time;durP1;ratioP1;P1;durP2;ratioP2;P2;SDS_P1;SDS_P2;PMS_P1;PMS_P2;Temp;Humidity;BMP_temperature;BMP_pressure;BME280_temperature;BME280_humidity;BME280_pressure;Samples;Min_cycle;Max_cycle;Signal;HPM_P1;HPM_P2
2022/01/17 00:01:14;;;;;;;39.25;26.30;;;5.00;99.90;;;;;;5052380;28;20036;-51
2022/01/17 00:03:58;;;;;;;39.35;24.88;;;5.00;99.90;;;;;;5050958;28;20412;-50
2022/01/17 00:06:43;;;;;;;38.35;25.98;;;5.00;99.90;;;;;;5047934;28;20703;-51
2022/01/17 00:09:28;;;;;;;;;;;4.90;99.90;;;;;;5052227;28;20094;-52
2022/01/17 00:12:12;;;;;;;37.05;25.05;;;4.90;99.90;;;;;;5052607;28;19960;-50
2022/01/17 00:14:56;;;;;;;39.07;26.50;;;4.90;99.90;;;;;;5050029;28;20044;-53
2022/01/17 00:17:43;;;;;;;36.80;24.60;;;4.90;99.90;;;;;;5052534;28;20040;-54
2022/01/17 00:20:28;;;;;;;37.13;24.70;;;4.90;99.90;;;;;;5051924;28;20039;-53
2022/01/17 00:23:14;;;;;;;37.78;25.13;;;5.00;99.90;;;;;;5051704;28;20048;-53
2022/01/17 00:25:59;;;;;;;35.33;24.35;;;4.90;99.90;;;;;;5049823;28;20046;-53
2022/01/17 00:28:43;;;;;;;36.63;23.55;;;4.90;99.90;;;;;;5050917;28;20129;-53
2022/01/17 00:31:27;;;;;;;37.70;24.35;;;4.90;99.90;;;;;;5052013;28;20068;-51
2022/01/17 00:34:11;;;;;;;38.30;24.90;;;4.90;99.90;;;;;;5051457;28;20067;-53
2022/01/17 00:36:55;;;;;;;36.67;23.00;;;4.90;99.90;;;;;;5051932;28;20032;-55
2022/01/17 00:39:39;;;;;;;34.72;24.25;;;4.90;99.90;;;;;;5048740;28;20101;-55
2022/01/17 00:42:23;;;;;;;33.55;24.00;;;4.90;99.90;;;;;;5051557;28;20182;-53
2022/01/17 00:45:11;;;;;;;35.20;24.00;;;4.90;99.90;;;;;;5051888;28;20067;-51
2022/01/17 00:47:57;;;;;;;38.90;24.58;;;4.90;99.90;;;;;;5052205;28;20067;-56
2022/01/17 00:50:41;;;;;;;34.03;24.40;;;4.90;99.90;;;;;;5044242;28;20099;-52
2022/01/17 00:53:26;;;;;;;37.05;24.77;;;4.90;99.90;;;;;;5048016;28;20523;-53
2022/01/17 00:56:10;;;;;;;33.00;22.50;;;4.90;99.90;;;;;;5050554;28;20044;-53
2022/01/17 00:58:54;;;;;;;34.60;23.87;;;5.00;99.90;;;;;;5051616;28;20434;-53
2022/01/17 01:01:38;;;;;;;33.00;24.67;;;5.00;99.90;;;;;;5036804;28;20035;-53
2022/01/17 01:04:22;;;;;;;37.50;24.70;;;5.10;99.90;;;;;;5051942;28;20135;-53
2022/01/17 01:07:07;;;;;;;35.45;23.75;;;5.00;99.90;;;;;;5051618;28;20032;-54
2022/01/17 01:10:03;;;;;;;35.13;23.27;;;5.00;99.90;;;;;;5051703;28;20051;-54
2022/01/17 01:12:49;;;;;;;33.92;23.52;;;5.00;99.90;;;;;;5050826;28;20777;-52
2022/01/17 01:15:47;;;;;;;34.65;22.92;;;5.00;99.90;;;;;;5052359;28;20035;-55
2022/01/17 01:18:55;;;;;;;34.63;24.20;;;5.00;99.90;;;;;;5052357;28;20052;-55
2022/01/17 01:27:36;;;;;;;32.10;21.88;;;5.10;99.90;;;;;;5052509;28;20396;-55
2022/01/17 01:27:58;;;;;;;34.83;21.58;;;5.20;99.90;;;;;;5042808;28;20040;-51
2022/01/17 01:30:46;;;;;;;33.67;21.52;;;5.30;99.90;;;;;;5052450;28;20086;-54
2022/01/17 01:33:35;;;;;;;30.40;21.27;;;5.30;99.90;;;;;;5045889;28;20487;-55
2022/01/17 01:36:26;;;;;;;31.67;22.65;;;5.30;99.90;;;;;;5052577;28;20044;-52
2022/01/17 01:39:10;;;;;;;31.65;22.42;;;5.20;99.90;;;;;;5052053;28;20090;-53
2022/01/17 01:41:55;;;;;;;34.10;21.20;;;5.20;99.90;;;;;;5052471;28;20040;-53
2022/01/17 01:44:39;;;;;;;35.58;23.30;;;5.30;99.90;;;;;;5052272;28;20027;-52
2022/01/17 01:47:25;;;;;;;33.10;21.67;;;5.30;99.90;;;;;;5052542;28;20091;-53
2022/01/17 01:50:11;;;;;;;31.05;21.52;;;5.30;99.90;;;;;;5050826;28;20083;-53
2022/01/17 01:52:55;;;;;;;31.23;20.95;;;5.30;99.90;;;;;;5051781;28;20389;-54
2022/01/17 01:55:39;;;;;;;28.23;19.50;;;5.30;99.90;;;;;;5052081;28;20166;-55
2022/01/17 01:58:25;;;;;;;31.67;20.13;;;5.30;99.90;;;;;;5051983;28;20036;-49
2022/01/17 02:01:09;;;;;;;29.33;19.50;;;5.50;99.90;;;;;;5051645;28;20036;-52
2022/01/17 02:03:54;;;;;;;25.83;18.95;;;5.40;99.90;;;;;;5051867;28;20090;-49
2022/01/17 02:06:38;;;;;;;27.95;18.75;;;5.50;99.90;;;;;;5052196;28;20040;-53
2022/01/17 02:09:25;;;;;;;28.45;19.70;;;5.50;99.90;;;;;;5052476;28;20043;-49
2022/01/17 02:12:09;;;;;;;26.58;18.02;;;5.50;99.90;;;;;;5051940;28;20359;-50
2022/01/17 02:14:54;;;;;;;24.00;16.60;;;5.50;99.90;;;;;;5052025;28;20039;-53
2022/01/17 02:17:44;;;;;;;;;;;5.60;99.90;;;;;;5052080;28;20040;-54
2022/01/17 02:20:44;;;;;;;23.27;15.90;;;5.60;99.90;;;;;;5052204;28;19923;-55
2022/01/17 02:23:28;;;;;;;24.33;16.63;;;5.60;99.90;;;;;;5048027;28;20109;-55
2022/01/17 02:26:13;;;;;;;22.50;15.38;;;5.50;99.90;;;;;;5050725;28;20035;-52
2022/01/17 02:28:57;;;;;;;19.63;15.13;;;5.70;99.90;;;;;;5051711;28;20098;-51
2022/01/17 02:31:44;;;;;;;22.85;14.60;;;5.60;99.90;;;;;;5051577;28;20055;-53
2022/01/17 02:34:31;;;;;;;24.30;14.48;;;5.60;99.90;;;;;;5051925;28;20095;-51
2022/01/17 02:37:18;;;;;;;20.67;13.95;;;5.70;99.90;;;;;;5051629;28;20090;-54
2022/01/17 02:40:03;;;;;;;20.40;13.85;;;5.70;99.90;;;;;;5051712;28;20036;-49
2022/01/17 02:43:00;;;;;;;25.35;15.23;;;5.70;99.90;;;;;;5051691;28;20039;-52
2022/01/17 02:48:38;;;;;;;20.80;14.68;;;5.70;99.90;;;;;;5054640;28;20067;-51
2022/01/17 02:51:23;;;;;;;20.85;14.50;;;5.70;99.90;;;;;;5054768;28;20121;-53
2022/01/17 02:54:07;;;;;;;20.00;14.43;;;5.80;99.90;;;;;;5055256;28;20044;-51
2022/01/17 02:56:51;;;;;;;23.40;13.40;;;5.70;99.90;;;;;;5068082;28;20067;-48
2022/01/17 02:59:35;;;;;;;20.08;13.52;;;5.70;99.90;;;;;;5054614;28;20040;-50
2022/01/17 03:02:20;;;;;;;17.45;11.50;;;5.70;99.90;;;;;;5051553;28;20504;-54
2022/01/17 03:05:09;;;;;;;17.35;12.48;;;5.70;99.90;;;;;;5033280;28;20043;-53
2022/01/17 03:07:53;;;;;;;16.38;11.45;;;5.80;99.90;;;;;;5052241;28;20098;-50
2022/01/17 03:10:39;;;;;;;14.23;10.32;;;5.80;99.90;;;;;;5054192;28;20094;-50
2022/01/17 03:13:30;;;;;;;15.25;10.40;;;5.80;99.90;;;;;;5053693;28;20107;-54
2022/01/17 03:16:16;;;;;;;12.65;8.95;;;5.70;99.90;;;;;;5052850;28;20040;-51
2022/01/17 03:19:00;;;;;;;15.85;9.68;;;5.80;99.90;;;;;;5054321;28;20036;-50
2022/01/17 03:21:44;;;;;;;14.10;8.80;;;5.80;99.90;;;;;;5055252;28;20036;-49
2022/01/17 03:24:28;;;;;;;15.27;9.60;;;5.80;99.90;;;;;;5055377;28;20043;-54
2022/01/17 03:27:12;;;;;;;14.02;8.38;;;5.90;99.90;;;;;;5056302;28;20068;-53
2022/01/17 03:29:57;;;;;;;15.40;10.30;;;5.80;99.90;;;;;;5040769;28;20102;-56
2022/01/17 03:32:41;;;;;;;13.73;9.32;;;5.80;99.90;;;;;;5054757;28;20052;-53
2022/01/17 03:35:26;;;;;;;13.97;9.07;;;5.80;99.90;;;;;;5054828;28;20048;-53
2022/01/17 03:38:15;;;;;;;14.38;8.88;;;5.80;99.90;;;;;;5054261;28;20044;-53
2022/01/17 03:41:02;;;;;;;12.23;8.98;;;5.80;99.90;;;;;;5054611;28;20036;-57
2022/01/17 03:43:46;;;;;;;12.98;8.82;;;5.90;99.90;;;;;;5054280;28;20063;-53
2022/01/17 03:46:30;;;;;;;13.93;8.70;;;5.90;99.90;;;;;;5054113;28;20027;-52
2022/01/17 03:49:14;;;;;;;15.23;9.18;;;5.90;99.90;;;;;;5054481;28;20051;-52
2022/01/17 03:51:58;;;;;;;12.27;8.07;;;5.90;99.90;;;;;;5053970;28;20518;-51
2022/01/17 03:54:43;;;;;;;13.98;8.32;;;6.00;99.90;;;;;;5054175;28;20040;-55
2022/01/17 03:57:27;;;;;;;;;;;5.90;99.90;;;;;;5053711;28;20055;-51
2022/01/17 04:00:24;;;;;;;12.82;8.30;;;5.90;99.90;;;;;;5053872;28;19928;-50
2022/01/17 04:03:09;;;;;;;13.48;8.55;;;5.90;99.90;;;;;;5053663;28;20040;-50
2022/01/17 04:05:54;;;;;;;13.90;7.75;;;6.00;99.90;;;;;;5053753;28;20115;-54
2022/01/17 04:08:38;;;;;;;12.75;8.68;;;6.10;99.90;;;;;;5054313;28;20036;-52
2022/01/17 04:11:23;;;;;;;13.85;8.43;;;6.10;99.90;;;;;;5053697;28;20132;-55
2022/01/17 04:14:09;;;;;;;12.95;7.95;;;6.10;99.90;;;;;;5053555;28;20130;-51
2022/01/17 04:16:53;;;;;;;13.85;9.20;;;6.10;99.90;;;;;;5053929;28;20055;-52
2022/01/17 04:19:37;;;;;;;13.85;9.15;;;6.10;99.90;;;;;;5053331;28;20040;-56
2022/01/17 04:22:21;;;;;;;12.43;8.85;;;6.00;99.90;;;;;;5053433;28;20523;-55
2022/01/17 04:25:07;;;;;;;14.27;9.65;;;6.00;99.90;;;;;;5053797;28;20032;-55
2022/01/17 04:27:52;;;;;;;15.15;8.77;;;6.10;99.90;;;;;;5053433;28;20086;-53
2022/01/17 04:30:36;;;;;;;;;;;6.10;99.90;;;;;;5053938;28;20108;-52
2022/01/17 04:33:20;;;;;;;13.65;8.40;;;6.10;99.90;;;;;;5040225;28;20386;-51
2022/01/17 04:36:07;;;;;;;15.68;9.15;;;6.20;99.90;;;;;;5053599;28;20102;-55
2022/01/17 04:38:51;;;;;;;14.85;8.55;;;6.10;99.90;;;;;;5042457;28;20044;-53
2022/01/17 04:41:39;;;;;;;17.00;10.23;;;6.10;99.90;;;;;;5019000;28;20040;-53
2022/01/17 04:47:26;;;;;;;15.50;8.43;;;6.30;99.90;;;;;;5053053;28;20405;-53
2022/01/17 04:50:19;;;;;;;12.85;8.15;;;6.30;99.90;;;;;;5052380;28;20112;-52
2022/01/17 04:53:03;;;;;;;13.63;8.77;;;6.20;99.90;;;;;;5052922;28;20544;-54
2022/01/17 04:55:49;;;;;;;13.63;8.03;;;6.20;99.90;;;;;;5053186;28;20700;-53
2022/01/17 04:58:33;;;;;;;13.82;7.85;;;6.10;99.90;;;;;;5052489;28;20047;-54
2022/01/17 05:01:20;;;;;;;15.27;7.97;;;6.10;99.90;;;;;;5052859;28;20039;-54
2022/01/17 05:04:04;;;;;;;13.25;8.57;;;6.10;99.90;;;;;;5052960;28;20040;-52
2022/01/17 05:06:48;;;;;;;13.67;7.40;;;6.10;99.90;;;;;;5053381;28;20032;-53
2022/01/17 05:09:32;;;;;;;11.40;7.73;;;6.10;99.90;;;;;;5053115;28;20140;-54
2022/01/17 05:12:17;;;;;;;;;;;6.10;99.90;;;;;;5053489;28;20119;-54
2022/01/17 05:15:03;;;;;;;12.50;7.47;;;6.10;99.90;;;;;;5052764;28;19922;-55
2022/01/17 05:18:24;;;;;;;10.70;7.00;;;6.10;99.90;;;;;;5052816;28;20040;-52
2022/01/17 05:21:03;;;;;;;14.27;6.85;;;6.10;99.90;;;;;;5051916;28;20046;-54
2022/01/17 05:23:47;;;;;;;11.95;6.90;;;6.10;99.90;;;;;;5050647;28;20067;-52
2022/01/17 05:26:32;;;;;;;13.52;8.15;;;6.20;99.90;;;;;;5051396;28;20091;-52
2022/01/17 05:29:16;;;;;;;10.00;6.57;;;6.20;99.90;;;;;;5052677;28;20106;-55
2022/01/17 05:32:00;;;;;;;13.38;6.25;;;6.20;99.90;;;;;;5052758;28;20376;-53
2022/01/17 05:34:44;;;;;;;11.57;5.97;;;6.20;99.90;;;;;;5052767;28;20083;-56
2022/01/17 05:37:28;;;;;;;9.07;5.82;;;6.20;99.90;;;;;;5051810;28;20048;-52
2022/01/17 05:40:13;;;;;;;8.20;4.70;;;6.20;99.90;;;;;;5052733;28;20086;-57
2022/01/17 05:42:58;;;;;;;9.52;4.80;;;6.30;99.90;;;;;;5051848;28;20523;-52
2022/01/17 05:45:42;;;;;;;10.87;4.70;;;6.40;99.90;;;;;;5053069;28;20095;-54
2022/01/17 05:48:26;;;;;;;6.28;4.68;;;6.30;99.90;;;;;;5051803;28;20083;-49
2022/01/17 05:51:11;;;;;;;8.65;3.92;;;6.40;99.90;;;;;;5038366;28;20035;-49
2022/01/17 05:53:55;;;;;;;6.67;3.80;;;6.30;99.90;;;;;;5050976;28;20043;-51
2022/01/17 05:56:39;;;;;;;6.57;2.85;;;6.30;99.90;;;;;;5051620;28;20064;-51
2022/01/17 05:59:23;;;;;;;8.13;3.17;;;6.10;99.90;;;;;;5051013;28;20055;-50
2022/01/17 06:02:07;;;;;;;9.23;3.22;;;6.20;99.90;;;;;;5052465;28;20040;-56
2022/01/17 06:04:52;;;;;;;7.35;2.70;;;6.20;99.90;;;;;;5051464;28;20087;-56
2022/01/17 06:07:36;;;;;;;9.48;2.92;;;6.10;99.90;;;;;;5045060;28;20570;-52
2022/01/17 06:10:20;;;;;;;6.83;2.67;;;6.10;99.90;;;;;;5052095;28;20527;-51
2022/01/17 06:13:05;;;;;;;7.28;2.60;;;6.20;99.90;;;;;;5052026;28;20047;-52
2022/01/17 06:15:52;;;;;;;6.45;2.88;;;6.20;99.90;;;;;;5047316;28;20482;-50
2022/01/17 06:18:36;;;;;;;10.30;2.42;;;6.20;99.90;;;;;;5050290;28;20111;-49
2022/01/17 06:21:20;;;;;;;8.30;2.88;;;6.30;99.90;;;;;;5052422;28;20036;-49
2022/01/17 06:24:06;;;;;;;11.20;2.55;;;6.10;99.90;;;;;;5042047;28;20630;-47
2022/01/17 06:26:50;;;;;;;12.75;3.20;;;6.10;99.90;;;;;;5056916;28;20040;-47
2022/01/17 06:29:35;;;;;;;11.48;3.33;;;6.00;99.90;;;;;;5056152;28;20032;-60
2022/01/17 06:32:19;;;;;;;13.02;3.13;;;6.10;99.90;;;;;;5054849;28;20111;-49
2022/01/17 06:35:03;;;;;;;9.77;3.67;;;6.10;99.90;;;;;;5051125;28;20063;-49
2022/01/17 06:37:48;;;;;;;11.05;2.80;;;6.10;99.90;;;;;;5055984;28;20143;-52
2022/01/17 06:40:33;;;;;;;14.85;4.65;;;6.20;99.90;;;;;;5055794;28;20106;-54
2022/01/17 06:43:16;;;;;;;11.88;3.90;;;6.20;99.90;;;;;;5055920;28;20118;-48
2022/01/17 06:46:01;;;;;;;10.10;2.63;;;6.20;99.90;;;;;;5055792;28;20037;-47
2022/01/17 06:48:46;;;;;;;10.68;3.33;;;6.00;99.90;;;;;;5055403;28;20086;-52
2022/01/17 06:51:31;;;;;;;5.05;2.58;;;6.00;99.90;;;;;;5052735;28;20404;-49
2022/01/17 06:54:15;;;;;;;9.65;3.30;;;6.10;99.90;;;;;;5054737;28;20076;-52
2022/01/17 06:56:59;;;;;;;15.00;3.73;;;6.00;99.90;;;;;;5055759;28;20036;-49
2022/01/17 06:59:45;;;;;;;10.23;3.33;;;6.00;99.90;;;;;;5055067;28;20044;-49
2022/01/17 07:02:30;;;;;;;10.25;2.95;;;6.00;99.90;;;;;;5054824;28;20063;-54
2022/01/17 07:05:14;;;;;;;15.18;3.63;;;6.00;99.90;;;;;;5055726;28;20044;-55
2022/01/17 07:07:58;;;;;;;13.57;3.37;;;6.00;99.90;;;;;;5055283;28;20036;-52
2022/01/17 07:10:42;;;;;;;9.00;3.60;;;6.00;99.90;;;;;;5046036;28;20086;-50
2022/01/17 07:13:26;;;;;;;11.82;3.22;;;6.00;99.90;;;;;;5053923;28;20503;-53
2022/01/17 07:16:10;;;;;;;15.38;3.17;;;6.00;99.90;;;;;;5055845;28;20036;-51
2022/01/17 07:18:54;;;;;;;10.43;2.80;;;6.00;99.90;;;;;;5055011;28;20111;-50
2022/01/17 07:21:38;;;;;;;13.57;2.97;;;6.00;99.90;;;;;;5055829;28;20064;-49
2022/01/17 07:24:22;;;;;;;11.73;3.08;;;6.00;99.90;;;;;;5052918;28;20114;-54
2022/01/17 07:27:06;;;;;;;13.48;3.88;;;5.90;99.90;;;;;;5055707;28;20035;-54
2022/01/17 07:29:51;;;;;;;13.82;3.40;;;5.90;99.90;;;;;;5055895;28;20075;-52
2022/01/17 07:32:36;;;;;;;12.20;3.53;;;5.80;99.90;;;;;;5034705;28;20500;-53
2022/01/17 07:35:20;;;;;;;11.90;3.20;;;5.80;99.90;;;;;;5037853;28;20036;-49
2022/01/17 07:38:05;;;;;;;23.45;4.07;;;5.80;99.90;;;;;;5055910;28;20302;-53
2022/01/17 07:40:49;;;;;;;14.82;3.47;;;5.80;99.90;;;;;;5054927;28;20555;-52
2022/01/17 07:43:33;;;;;;;12.13;3.05;;;5.80;99.90;;;;;;5054957;28;20035;-56
2022/01/17 07:46:31;;;;;;;12.05;4.10;;;5.90;99.90;;;;;;5053035;28;20043;-52
2022/01/17 07:49:19;;;;;;;12.85;3.67;;;5.70;99.90;;;;;;5050108;28;20032;-52
2022/01/17 07:52:05;;;;;;;12.95;3.90;;;5.70;99.90;;;;;;5036618;28;20036;-50
2022/01/17 07:54:49;;;;;;;9.20;3.60;;;5.60;99.90;;;;;;5044638;28;20047;-55
2022/01/17 07:57:36;;;;;;;10.45;3.60;;;5.70;99.90;;;;;;5053882;28;20099;-49
2022/01/17 08:00:22;;;;;;;14.70;3.75;;;5.60;99.90;;;;;;5054541;28;20083;-50
2022/01/17 08:03:07;;;;;;;10.63;3.38;;;5.60;99.90;;;;;;5051436;28;20028;-50
2022/01/17 08:05:51;;;;;;;19.48;4.45;;;5.60;99.90;;;;;;5054329;28;20055;-51
2022/01/17 08:08:35;;;;;;;7.22;3.15;;;5.50;99.90;;;;;;5052785;28;20044;-50
2022/01/17 08:11:20;;;;;;;9.02;3.15;;;5.60;99.90;;;;;;5053454;28;20048;-54
2022/01/17 08:14:04;;;;;;;10.30;3.50;;;5.70;99.90;;;;;;5035196;28;20088;-54
2022/01/17 08:16:48;;;;;;;7.63;3.30;;;5.70;99.90;;;;;;5054174;28;20040;-53
2022/01/17 08:19:33;;;;;;;10.23;3.30;;;5.70;99.90;;;;;;5052415;28;20079;-53
2022/01/17 08:22:17;;;;;;;8.63;3.10;;;5.70;99.90;;;;;;5051287;28;20266;-49
2022/01/17 08:25:01;;;;;;;10.47;3.20;;;5.70;99.90;;;;;;5041541;28;20036;-52
2022/01/17 08:27:46;;;;;;;11.45;3.10;;;5.70;99.90;;;;;;5053295;28;20089;-51
2022/01/17 08:30:31;;;;;;;13.25;2.95;;;5.60;99.90;;;;;;5054228;28;20044;-53
2022/01/17 08:33:16;;;;;;;11.45;2.97;;;5.60;99.90;;;;;;5043535;28;20055;-54
2022/01/17 08:36:00;;;;;;;5.30;3.25;;;5.70;99.90;;;;;;5051941;28;20063;-51
2022/01/17 08:38:45;;;;;;;10.23;3.08;;;5.70;99.90;;;;;;5045663;28;20037;-50
2022/01/17 08:41:29;;;;;;;7.38;2.78;;;5.70;99.90;;;;;;5052232;28;20515;-54
2022/01/17 08:44:13;;;;;;;12.45;4.18;;;5.70;99.90;;;;;;5044621;28;20051;-50
2022/01/17 08:46:57;;;;;;;12.32;3.45;;;5.70;99.90;;;;;;5053963;28;20445;-54
2022/01/17 08:49:42;;;;;;;11.57;3.75;;;5.60;99.90;;;;;;5052607;28;20130;-55
2022/01/17 08:52:26;;;;;;;7.53;2.92;;;5.70;99.90;;;;;;5052371;28;20459;-48
2022/01/17 08:55:11;;;;;;;6.93;3.33;;;5.70;99.90;;;;;;5053506;28;20086;-53
2022/01/17 08:57:55;;;;;;;9.13;3.05;;;5.70;99.90;;;;;;5052719;28;20032;-55
2022/01/17 09:00:41;;;;;;;10.97;3.53;;;5.70;99.90;;;;;;5051328;28;20178;-54
2022/01/17 09:03:25;;;;;;;9.20;3.45;;;5.80;99.90;;;;;;5051538;28;20079;-49
2022/01/17 09:06:10;;;;;;;6.55;2.60;;;5.80;99.90;;;;;;5053070;28;20392;-51
2022/01/17 09:08:54;;;;;;;10.00;3.00;;;5.80;99.90;;;;;;5051917;28;20040;-53
2022/01/17 09:11:38;;;;;;;11.60;3.05;;;5.70;99.90;;;;;;5053316;28;20444;-51
2022/01/17 09:14:22;;;;;;;7.68;2.95;;;5.70;99.90;;;;;;5053312;28;20086;-53
2022/01/17 09:17:08;;;;;;;5.72;3.13;;;5.70;99.90;;;;;;5055343;28;20047;-54
2022/01/17 09:19:52;;;;;;;7.50;2.83;;;5.80;99.90;;;;;;5052917;28;20043;-53
2022/01/17 09:22:37;;;;;;;5.15;2.47;;;5.80;99.90;;;;;;5051173;28;20043;-53
2022/01/17 09:25:23;;;;;;;5.85;2.70;;;5.80;99.90;;;;;;5050259;28;20094;-48
2022/01/17 09:28:11;;;;;;;7.68;2.97;;;5.80;99.90;;;;;;5052509;28;20024;-51
2022/01/17 09:30:56;;;;;;;7.82;2.47;;;5.70;99.90;;;;;;5053001;28;20036;-51
2022/01/17 09:33:41;;;;;;;10.88;2.83;;;5.80;99.90;;;;;;5052577;28;20040;-51
2022/01/17 09:36:28;;;;;;;;;;;5.80;99.90;;;;;;5065963;28;20039;-51
2022/01/17 09:39:13;;;;;;;11.18;3.15;;;5.80;99.90;;;;;;5052643;28;19915;-51
2022/01/17 09:41:59;;;;;;;;;;;5.80;99.90;;;;;;5038164;28;20074;-48
2022/01/17 09:44:47;;;;;;;9.20;3.60;;;5.70;99.90;;;;;;5042863;28;20383;-50
2022/01/17 09:47:34;;;;;;;11.68;2.80;;;5.70;99.90;;;;;;5052278;28;20040;-51
2022/01/17 09:50:22;;;;;;;6.47;2.38;;;5.80;99.90;;;;;;5051304;28;20039;-48
2022/01/17 09:53:07;;;;;;;7.22;2.78;;;5.80;99.90;;;;;;5052008;28;20070;-51
2022/01/17 09:55:51;;;;;;;10.73;4.40;;;5.70;99.90;;;;;;5052097;28;20116;-50
2022/01/17 09:58:37;;;;;;;8.87;3.87;;;5.70;99.90;;;;;;5052712;28;20290;-51
2022/01/17 10:01:21;;;;;;;7.40;3.17;;;5.60;99.90;;;;;;5052493;28;20079;-52
2022/01/17 10:04:07;;;;;;;8.95;3.22;;;5.70;99.90;;;;;;5050933;28;20123;-54
2022/01/17 10:06:53;;;;;;;8.70;2.72;;;5.70;99.90;;;;;;5042159;28;20130;-50
2022/01/17 10:09:40;;;;;;;7.47;2.80;;;5.70;99.90;;;;;;5032869;28;20095;-58
2022/01/17 10:12:24;;;;;;;8.43;3.35;;;5.70;99.90;;;;;;5045484;28;20040;-51
2022/01/17 10:15:21;;;;;;;12.83;3.80;;;5.70;99.90;;;;;;5053098;28;20119;-51
2022/01/17 10:18:06;;;;;;;11.90;4.32;;;5.70;99.90;;;;;;5052507;28;20282;-51
2022/01/17 10:20:55;;;;;;;6.45;2.65;;;5.70;99.90;;;;;;5052729;28;20449;-54
2022/01/17 10:26:39;;;;;;;;;;;5.70;99.90;;;;;;5052729;28;20079;-53
2022/01/17 10:29:54;;;;;;;9.23;3.72;;;5.70;99.90;;;;;;5052206;28;20307;-52
2022/01/17 10:35:42;;;;;;;12.80;4.93;;;5.70;99.90;;;;;;5052378;28;20542;-50
2022/01/17 10:38:29;;;;;;;6.88;4.30;;;5.80;99.90;;;;;;5048587;28;20041;-55
2022/01/17 10:41:15;;;;;;;7.43;2.92;;;5.80;99.90;;;;;;5047173;28;20040;-55
2022/01/17 10:43:59;;;;;;;9.90;3.08;;;5.80;99.90;;;;;;5043022;28;20031;-50
2022/01/17 10:46:43;;;;;;;10.98;3.13;;;5.80;99.90;;;;;;5051392;28;20087;-52
2022/01/17 10:49:49;;;;;;;7.15;3.30;;;5.70;99.90;;;;;;5051487;28;20040;-53
2022/01/17 10:52:36;;;;;;;10.80;3.30;;;5.70;99.90;;;;;;5050802;28;20091;-50
2022/01/17 10:55:25;;;;;;;10.90;3.30;;;5.70;99.90;;;;;;5053262;28;20040;-51
2022/01/17 10:58:13;;;;;;;9.55;4.15;;;5.80;99.90;;;;;;5052066;28;20107;-54
2022/01/17 11:01:11;;;;;;;5.05;2.95;;;5.90;99.90;;;;;;5052365;28;20445;-55
2022/01/17 11:03:57;;;;;;;6.38;3.15;;;5.90;99.90;;;;;;5050211;28;20056;-55
2022/01/17 11:06:47;;;;;;;6.32;3.30;;;5.90;99.90;;;;;;5052004;28;20032;-54
2022/01/17 11:09:40;;;;;;;10.18;3.75;;;6.00;99.90;;;;;;5049081;28;20052;-56
2022/01/17 11:12:28;;;;;;;8.10;3.28;;;6.10;99.90;;;;;;5054729;28;20082;-53
2022/01/17 11:15:14;;;;;;;9.80;3.70;;;6.00;99.90;;;;;;5054998;28;20562;-52
2022/01/17 11:18:04;;;;;;;7.65;3.72;;;6.00;99.90;;;;;;5054964;28;20139;-51
2022/01/17 11:20:51;;;;;;;6.13;3.40;;;5.90;99.90;;;;;;5055037;28;20040;-53
2022/01/17 11:23:37;;;;;;;9.18;3.63;;;6.00;99.90;;;;;;5053537;28;20666;-53
2022/01/17 11:26:21;;;;;;;5.07;3.15;;;6.00;99.90;;;;;;5052904;28;20384;-48
2022/01/17 11:29:07;;;;;;;7.93;2.95;;;6.10;99.90;;;;;;5053992;28;20559;-54
2022/01/17 11:31:51;;;;;;;7.65;3.25;;;6.10;99.90;;;;;;5054108;28;20553;-53
2022/01/17 11:34:35;;;;;;;11.53;5.17;;;6.10;99.90;;;;;;5054759;28;20039;-50
2022/01/17 11:37:20;;;;;;;9.85;3.58;;;6.10;99.90;;;;;;5054330;28;20274;-54
2022/01/17 11:40:08;;;;;;;;;;;6.20;99.90;;;;;;5055336;28;20478;-51
2022/01/17 11:42:54;;;;;;;5.57;3.17;;;6.10;99.90;;;;;;5052263;28;20371;-51
2022/01/17 11:45:38;;;;;;;3.78;2.70;;;6.20;99.90;;;;;;5043109;28;20039;-50
2022/01/17 11:48:32;;;;;;;4.50;2.75;;;6.30;99.90;;;;;;5051896;28;20083;-52
2022/01/17 11:51:17;;;;;;;6.50;2.60;;;6.20;99.90;;;;;;5053989;28;20040;-56
2022/01/17 11:54:13;;;;;;;4.70;3.10;;;6.20;99.90;;;;;;5053497;28;20036;-49
2022/01/17 11:57:06;;;;;;;3.85;2.75;;;6.20;99.90;;;;;;5054408;28;20919;-54
2022/01/17 11:59:50;;;;;;;5.72;2.80;;;6.30;99.90;;;;;;5052873;28;20071;-53
2022/01/17 12:02:37;;;;;;;6.33;2.80;;;6.30;99.90;;;;;;5052965;28;20039;-54
2022/01/17 12:05:24;;;;;;;3.55;2.45;;;6.30;99.90;;;;;;5054973;28;20039;-56
2022/01/17 12:08:09;;;;;;;4.25;2.58;;;6.40;99.90;;;;;;5055316;28;20387;-56
2022/01/17 12:10:59;;;;;;;5.32;2.67;;;6.30;99.90;;;;;;5052212;28;20028;-54
2022/01/17 12:13:43;;;;;;;5.25;2.60;;;6.40;99.90;;;;;;5048956;28;20039;-53
2022/01/17 12:16:30;;;;;;;9.38;2.83;;;6.30;99.90;;;;;;5053069;28;20384;-55
2022/01/17 12:19:14;;;;;;;5.22;2.95;;;6.30;99.90;;;;;;5053651;28;20098;-55
2022/01/17 12:22:05;;;;;;;3.50;2.43;;;6.40;99.90;;;;;;5051913;28;20036;-53
2022/01/17 12:24:52;;;;;;;4.88;2.60;;;6.40;99.90;;;;;;5052646;28;20259;-55
2022/01/17 12:27:37;;;;;;;3.58;2.40;;;6.50;99.90;;;;;;5054077;28;20028;-54
2022/01/17 12:30:23;;;;;;;2.67;2.35;;;6.50;99.90;;;;;;5050527;28;20032;-52
2022/01/17 12:33:34;;;;;;;3.58;2.38;;;6.50;99.90;;;;;;5053478;28;20059;-53
2022/01/17 12:36:31;;;;;;;2.95;2.30;;;6.50;99.90;;;;;;5059564;28;20451;-56
2022/01/17 12:39:19;;;;;;;2.60;2.10;;;6.50;99.90;;;;;;5053349;28;20055;-56
2022/01/17 12:42:06;;;;;;;3.20;2.30;;;6.50;99.90;;;;;;5051074;28;20032;-54
2022/01/17 12:45:00;;;;;;;6.63;2.63;;;6.60;99.90;;;;;;5049938;28;20052;-55
2022/01/17 12:47:46;;;;;;;6.53;2.42;;;6.60;99.90;;;;;;5051004;28;20023;-55
2022/01/17 12:50:32;;;;;;;5.68;2.90;;;6.70;99.90;;;;;;5050698;28;20064;-53
2022/01/17 12:53:19;;;;;;;3.58;2.30;;;6.70;99.90;;;;;;5052836;28;20399;-55
2022/01/17 12:56:06;;;;;;;4.40;2.45;;;6.80;99.90;;;;;;5051668;28;20119;-52
2022/01/17 12:58:51;;;;;;;5.18;2.55;;;6.80;99.90;;;;;;5051137;28;20542;-54
2022/01/17 13:01:39;;;;;;;4.47;2.30;;;6.80;99.90;;;;;;5052831;28;20074;-53
2022/01/17 13:04:24;;;;;;;8.95;2.92;;;7.00;99.90;;;;;;5052324;28;20040;-56
2022/01/17 13:07:09;;;;;;;7.05;3.13;;;7.00;99.90;;;;;;5051791;28;20036;-55
2022/01/17 13:09:53;;;;;;;6.25;2.97;;;7.00;99.90;;;;;;5052551;28;20039;-55
2022/01/17 13:12:42;;;;;;;8.80;3.08;;;7.10;99.90;;;;;;5052644;28;20032;-55
2022/01/17 13:15:27;;;;;;;10.05;3.28;;;7.30;99.90;;;;;;5050780;28;20408;-54
2022/01/17 13:18:12;;;;;;;11.15;3.58;;;7.80;99.90;;;;;;5052472;28;20032;-54
2022/01/17 13:20:57;;;;;;;7.95;3.17;;;8.00;99.90;;;;;;5052708;28;20044;-55
2022/01/17 13:23:52;;;;;;;11.38;4.10;;;8.00;99.90;;;;;;5049683;28;20035;-56
2022/01/17 13:26:40;;;;;;;8.98;3.40;;;8.00;99.90;;;;;;5050245;28;20059;-53
2022/01/17 13:29:30;;;;;;;7.88;3.97;;;8.00;99.90;;;;;;5049352;28;20075;-54
2022/01/17 13:32:14;;;;;;;10.07;3.67;;;7.90;99.90;;;;;;5047895;28;20110;-51
2022/01/17 13:35:07;;;;;;;13.55;4.75;;;7.90;99.90;;;;;;5051335;28;20095;-52
2022/01/17 13:38:06;;;;;;;7.20;3.83;;;7.90;99.90;;;;;;5051993;28;20040;-54
2022/01/17 13:41:02;;;;;;;6.57;2.78;;;7.60;99.90;;;;;;5051106;28;20044;-53
2022/01/17 13:43:51;;;;;;;13.25;3.08;;;6.90;99.90;;;;;;5050099;28;20075;-56
2022/01/17 13:46:43;;;;;;;5.88;2.17;;;6.40;99.90;;;;;;5051654;28;20047;-53
2022/01/17 13:49:32;;;;;;;6.68;2.90;;;6.40;99.90;;;;;;5051138;28;20036;-55
2022/01/17 13:52:18;;;;;;;10.70;2.78;;;6.40;99.90;;;;;;5033131;28;20045;-58
2022/01/17 13:55:42;;;;;;;5.35;2.30;;;6.30;99.90;;;;;;5049464;28;20456;-54
2022/01/17 13:58:28;;;;;;;6.60;2.63;;;6.30;99.90;;;;;;5051851;28;20036;-56
2022/01/17 14:01:14;;;;;;;9.57;3.50;;;6.20;99.90;;;;;;5052193;28;20033;-57
2022/01/17 14:04:04;;;;;;;9.90;2.85;;;6.20;99.90;;;;;;5052359;28;20040;-55
2022/01/17 14:06:48;;;;;;;13.68;3.58;;;6.20;99.90;;;;;;5052307;28;20063;-60
2022/01/17 14:09:34;;;;;;;10.10;3.50;;;6.50;99.90;;;;;;5045392;28;20559;-59
2022/01/17 14:12:19;;;;;;;8.95;2.65;;;6.40;99.90;;;;;;5051855;28;20052;-60
2022/01/17 14:15:04;;;;;;;12.90;3.67;;;6.30;99.90;;;;;;5052488;28;20795;-59
2022/01/17 14:17:49;;;;;;;8.43;2.60;;;6.30;99.90;;;;;;5050811;28;20439;-59
2022/01/17 14:20:33;;;;;;;8.30;2.70;;;6.30;99.90;;;;;;5052194;28;20044;-58
2022/01/17 14:23:26;;;;;;;12.23;2.80;;;6.30;99.90;;;;;;5042808;28;20109;-58
2022/01/17 14:26:10;;;;;;;9.52;2.65;;;6.30;99.90;;;;;;5052463;28;20044;-57
2022/01/17 14:28:54;;;;;;;5.88;2.60;;;6.40;99.90;;;;;;5044937;28;20060;-58
2022/01/17 14:31:42;;;;;;;8.93;2.90;;;6.40;99.90;;;;;;5039868;28;20122;-57
2022/01/17 14:34:32;;;;;;;10.38;3.45;;;6.50;99.90;;;;;;5051254;28;20040;-56
2022/01/17 14:37:25;;;;;;;8.70;2.80;;;6.60;99.90;;;;;;5050100;28;20047;-56
2022/01/17 14:40:10;;;;;;;11.68;3.10;;;6.60;99.90;;;;;;5051519;28;20027;-57
2022/01/17 14:42:56;;;;;;;11.00;3.80;;;6.60;99.90;;;;;;5054524;28;20120;-58
2022/01/17 14:45:49;;;;;;;10.00;3.60;;;6.60;99.90;;;;;;5054869;28;20546;-58